createdAt,value
2018-07-10T00:01:14.290Z,81.00
2018-07-10T00:04:06.667Z,82.30
2018-07-10T00:07:04.638Z,83.10
2018-07-10T00:09:45.953Z,83.70
2018-07-10T00:12:14.457Z,84.00
2018-07-10T00:14:42.546Z,84.40
2018-07-10T00:17:10.618Z,85.20
2018-07-10T00:19:38.682Z,85.20
2018-07-10T00:22:06.777Z,85.30
2018-07-10T00:24:34.878Z,85.20
2018-07-10T00:27:03.028Z,85.20
2018-07-10T00:29:31.131Z,84.90
2018-07-10T00:31:59.168Z,84.80
2018-07-10T00:34:27.222Z,84.40
2018-07-10T00:36:55.569Z,84.30
2018-07-10T00:39:23.655Z,84.00
2018-07-10T00:41:51.722Z,83.60
2018-07-10T00:44:19.793Z,83.50
2018-07-10T00:46:47.854Z,83.30
2018-07-10T00:49:16.221Z,83.20
2018-07-10T00:51:44.292Z,83.10
2018-07-10T00:54:12.354Z,82.80
2018-07-10T00:56:40.502Z,82.80
2018-07-10T00:59:08.591Z,82.80
2018-07-10T01:01:37.186Z,82.60
2018-07-10T01:04:05.254Z,82.60
2018-07-10T01:06:33.388Z,83.00
2018-07-10T01:09:01.488Z,82.60
2018-07-10T01:11:29.569Z,82.50
2018-07-10T01:13:57.960Z,82.30
2018-07-10T01:16:33.754Z,82.20
2018-07-10T01:21:29.690Z,81.90
2018-07-10T01:23:59.842Z,82.00
2018-07-10T01:26:29.949Z,81.90
2018-07-10T01:29:02.570Z,81.80
2018-07-10T01:31:30.931Z,81.80
2018-07-10T01:33:59.009Z,82.00
2018-07-10T01:36:27.074Z,82.10
2018-07-10T01:38:55.658Z,82.00
2018-07-10T01:41:23.823Z,81.80
2018-07-10T01:43:52.467Z,81.60
2018-07-10T01:46:20.587Z,81.60
2018-07-10T01:48:48.658Z,81.70
2018-07-10T01:51:16.743Z,81.70
2018-07-10T01:53:45.620Z,81.70
2018-07-10T01:56:13.925Z,81.60
2018-07-10T01:58:42.091Z,81.80
2018-07-10T02:01:10.179Z,81.70
2018-07-10T02:03:38.241Z,81.80
2018-07-10T02:06:06.314Z,81.50
2018-07-10T02:08:34.398Z,81.40
2018-07-10T02:11:02.476Z,81.30
2018-07-10T02:13:30.562Z,81.30
2018-07-10T02:15:58.634Z,81.20
2018-07-10T02:18:26.744Z,81.20
2018-07-10T02:20:58.860Z,81.10
2018-07-10T02:23:32.030Z,81.10
2018-07-10T02:26:00.351Z,81.10
2018-07-10T02:28:28.426Z,81.00
2018-07-10T02:30:56.879Z,80.90
2018-07-10T02:33:24.947Z,80.90
2018-07-10T02:35:53.026Z,80.80
2018-07-10T02:38:21.430Z,80.60
2018-07-10T02:40:49.530Z,80.40
2018-07-10T02:43:17.705Z,80.30
2018-07-10T02:45:45.791Z,80.10
2018-07-10T02:48:13.866Z,79.90
2018-07-10T02:50:43.148Z,79.70
2018-07-10T02:53:11.546Z,79.60
2018-07-10T02:55:40.384Z,79.70
2018-07-10T02:58:08.493Z,79.50
2018-07-10T03:00:36.546Z,79.40
2018-07-10T03:03:04.656Z,79.30
2018-07-10T03:05:33.044Z,79.20
2018-07-10T03:08:01.174Z,79.20
2018-07-10T03:10:29.247Z,79.10
2018-07-10T03:12:57.332Z,79.00
2018-07-10T03:15:25.404Z,79.00
2018-07-10T03:17:53.799Z,79.00
2018-07-10T03:20:22.143Z,79.00
2018-07-10T03:22:50.235Z,78.90
2018-07-10T03:25:18.310Z,78.70
2018-07-10T03:27:46.379Z,78.60
2018-07-10T03:30:14.503Z,78.60
2018-07-10T03:32:42.591Z,78.50
2018-07-10T03:35:10.663Z,78.50
2018-07-10T03:37:38.802Z,78.40
2018-07-10T03:40:06.875Z,78.20
2018-07-10T03:42:35.014Z,78.20
2018-07-10T03:45:03.077Z,78.10
2018-07-10T03:47:31.260Z,78.10
2018-07-10T03:49:59.346Z,78.00
2018-07-10T03:52:36.311Z,78.10
2018-07-10T03:55:11.150Z,78.00
2018-07-10T03:57:39.248Z,78.30
2018-07-10T04:00:09.880Z,78.30
2018-07-10T04:02:41.178Z,78.20
2018-07-10T04:05:09.250Z,78.10
2018-07-10T04:07:37.971Z,77.90
2018-07-10T04:10:06.468Z,77.90
2018-07-10T04:12:36.179Z,78.00
2018-07-10T04:15:04.759Z,78.00
2018-07-10T04:17:41.262Z,77.90
2018-07-10T04:20:09.548Z,78.00
2018-07-10T04:22:41.623Z,77.90
2018-07-10T04:25:09.950Z,77.90
2018-07-10T04:27:46.870Z,78.00
2018-07-10T04:30:20.005Z,77.90
2018-07-10T04:32:48.450Z,77.90
2018-07-10T04:35:19.922Z,78.10
2018-07-10T04:37:50.182Z,78.10
2018-07-10T04:40:19.075Z,78.10
2018-07-10T04:42:55.931Z,78.20
2018-07-10T04:45:27.114Z,78.10
2018-07-10T04:47:56.656Z,77.90
2018-07-10T04:50:27.019Z,78.00
2018-07-10T04:53:03.293Z,78.00
2018-07-10T04:55:32.698Z,77.90
2018-07-10T04:58:06.143Z,77.60
2018-07-10T05:00:36.343Z,77.30
2018-07-10T05:03:04.422Z,77.00
2018-07-10T05:05:33.675Z,76.90
2018-07-10T05:08:03.588Z,77.30
2018-07-10T05:10:33.042Z,76.20
2018-07-10T05:13:02.642Z,75.70
2018-07-10T05:15:30.707Z,75.60
2018-07-10T05:17:59.659Z,75.50
2018-07-10T05:20:28.436Z,75.40
2018-07-10T05:22:56.571Z,75.10
2018-07-10T05:25:24.579Z,75.10
2018-07-10T05:27:52.636Z,75.10
2018-07-10T05:30:21.150Z,74.90
2018-07-10T05:32:49.472Z,74.80
2018-07-10T05:35:18.410Z,75.00
2018-07-10T05:37:46.818Z,74.90
2018-07-10T05:40:14.891Z,74.80
2018-07-10T05:42:48.504Z,75.00
2018-07-10T05:45:19.559Z,75.10
2018-07-10T05:47:51.277Z,75.30
2018-07-10T05:50:20.646Z,75.50
2018-07-10T05:52:48.717Z,75.80
2018-07-10T05:55:24.216Z,75.80
2018-07-10T05:57:52.459Z,76.20
2018-07-10T06:00:20.526Z,76.10
2018-07-10T06:02:48.687Z,76.20
2018-07-10T06:05:16.745Z,76.10
2018-07-10T06:07:44.817Z,76.00
2018-07-10T06:10:12.895Z,76.00
2018-07-10T06:12:40.971Z,75.90
2018-07-10T06:15:09.043Z,75.90
2018-07-10T06:17:37.138Z,75.90
2018-07-10T06:20:05.619Z,75.90
2018-07-10T06:22:33.704Z,75.80
2018-07-10T06:25:05.082Z,75.80
2018-07-10T06:27:46.543Z,75.90
2018-07-10T06:30:14.918Z,76.00
2018-07-10T06:32:51.729Z,76.00
2018-07-10T06:37:57.286Z,75.80
2018-07-10T06:40:25.566Z,75.50
2018-07-10T06:47:54.452Z,75.10
2018-07-10T06:50:22.845Z,75.10
2018-07-10T06:52:52.616Z,75.10
2018-07-10T06:55:20.932Z,75.50
2018-07-10T06:57:54.522Z,75.50
2018-07-10T07:00:22.605Z,75.70
2018-07-10T07:02:50.780Z,75.70
2018-07-10T07:05:18.850Z,75.80
2018-07-10T07:07:46.945Z,75.70
2018-07-10T07:10:15.813Z,75.50
2018-07-10T07:12:44.809Z,75.30
2018-07-10T07:15:14.311Z,75.20
2018-07-10T07:17:46.648Z,75.10
2018-07-10T07:20:14.757Z,75.00
2018-07-10T07:22:43.116Z,75.10
2018-07-10T07:25:11.204Z,74.90
2018-07-10T07:27:39.298Z,75.00
2018-07-10T07:30:07.360Z,74.90
2018-07-10T07:32:35.462Z,75.40
2018-07-10T07:35:03.920Z,75.00
2018-07-10T07:37:33.748Z,75.20
2018-07-10T07:42:29.660Z,75.40
2018-07-10T07:44:57.959Z,75.40
2018-07-10T07:49:55.443Z,75.70
2018-07-10T07:52:24.486Z,75.80
2018-07-10T07:54:52.584Z,76.10
2018-07-10T07:57:22.216Z,76.80
2018-07-10T08:02:18.435Z,76.80
2018-07-10T08:04:46.516Z,76.90
2018-07-10T08:07:14.591Z,77.20
2018-07-10T08:09:42.652Z,77.10
2018-07-10T08:12:10.767Z,77.30
2018-07-10T08:14:38.901Z,77.50
2018-07-10T08:17:07.056Z,77.80
2018-07-10T08:19:35.159Z,78.60
2018-07-10T08:22:03.246Z,79.70
2018-07-10T08:24:31.355Z,80.40
2018-07-10T08:26:59.667Z,81.30
2018-07-10T08:29:29.156Z,81.90
2018-07-10T08:31:57.542Z,82.40
2018-07-10T08:34:26.227Z,82.60
2018-07-10T08:36:54.706Z,82.80
2018-07-10T08:39:22.809Z,83.60
2018-07-10T08:41:51.618Z,83.00
2018-07-10T08:44:20.606Z,83.30
2018-07-10T08:49:19.523Z,84.90
2018-07-10T08:51:48.883Z,86.50
2018-07-10T08:54:17.271Z,86.70
2018-07-10T08:56:45.343Z,87.50
2018-07-10T08:59:13.418Z,90.00
2018-07-10T09:01:41.535Z,89.70
2018-07-10T09:04:09.619Z,91.00
2018-07-10T09:06:37.830Z,90.80
2018-07-10T09:11:34.825Z,91.00
2018-07-10T09:14:03.026Z,91.20
2018-07-10T09:16:31.095Z,91.30
2018-07-10T09:21:27.038Z,91.60
2018-07-10T09:23:55.864Z,91.80
2018-07-10T09:26:23.922Z,92.00
2018-07-10T09:28:52.063Z,92.20
2018-07-10T09:31:20.130Z,92.40
2018-07-10T09:33:48.237Z,92.50
2018-07-10T09:36:16.438Z,92.70
2018-07-10T09:38:44.540Z,92.90
2018-07-10T09:41:12.614Z,93.00
2018-07-10T09:43:43.164Z,93.10
2018-07-10T09:46:11.243Z,93.60
2018-07-10T09:48:39.394Z,93.40
2018-07-10T09:51:07.471Z,93.50
2018-07-10T09:53:35.650Z,93.80
2018-07-10T09:56:03.734Z,94.00
2018-07-10T09:58:32.252Z,94.10
2018-07-10T10:01:08.447Z,94.90
2018-07-10T10:03:36.560Z,94.90
2018-07-10T10:06:05.018Z,95.30
2018-07-10T10:11:01.162Z,95.20
2018-07-10T10:15:57.094Z,94.70
2018-07-10T10:18:26.595Z,94.80
2018-07-10T10:20:54.874Z,94.40
2018-07-10T10:23:22.954Z,94.40
2018-07-10T10:25:51.992Z,94.50
2018-07-10T10:28:24.114Z,94.50
2018-07-10T10:30:52.182Z,94.40
2018-07-10T10:33:20.285Z,94.30
2018-07-10T10:35:48.554Z,94.20
2018-07-10T10:38:17.538Z,93.90
2018-07-10T10:40:47.182Z,93.70
2018-07-10T10:43:15.366Z,93.50
2018-07-10T10:45:44.159Z,93.50
2018-07-10T10:48:13.822Z,93.40
2018-07-10T10:50:43.643Z,93.30
2018-07-10T10:53:11.746Z,93.10
2018-07-10T10:55:39.880Z,92.70
2018-07-10T10:58:08.034Z,92.20
2018-07-10T11:00:36.101Z,92.00
2018-07-10T11:03:04.165Z,92.10
2018-07-10T11:05:33.111Z,92.10
2018-07-10T11:10:41.639Z,91.50
2018-07-10T11:13:09.781Z,91.60
2018-07-10T11:15:44.470Z,91.40
2018-07-10T11:18:18.345Z,91.10
2018-07-10T11:20:51.448Z,90.80
2018-07-10T11:23:28.531Z,90.90
2018-07-10T11:26:03.458Z,91.00
2018-07-10T11:28:31.847Z,91.30
2018-07-10T11:30:59.968Z,91.60
2018-07-10T11:33:29.082Z,91.80
2018-07-10T11:35:57.152Z,91.90
2018-07-10T11:38:25.222Z,92.20
2018-07-10T11:40:53.317Z,92.40
2018-07-10T11:43:21.776Z,92.50
2018-07-10T11:45:49.927Z,92.50
2018-07-10T11:48:17.927Z,92.60
2018-07-10T11:50:45.995Z,92.70
2018-07-10T11:53:14.058Z,93.00
2018-07-10T11:55:42.144Z,93.30
2018-07-10T11:58:11.130Z,93.60
2018-07-10T12:00:39.194Z,93.70
2018-07-10T12:05:36.577Z,94.60
2018-07-10T12:08:04.672Z,94.00
2018-07-10T12:10:34.116Z,93.70
2018-07-10T12:13:02.170Z,93.30
2018-07-10T12:15:30.273Z,93.10
2018-07-10T12:17:59.140Z,92.90
2018-07-10T12:20:38.164Z,92.80
2018-07-10T12:23:07.670Z,92.40
2018-07-10T12:25:38.174Z,91.90
2018-07-10T12:28:07.588Z,91.80
2018-07-10T12:30:35.996Z,91.80
2018-07-10T12:33:04.122Z,91.70
2018-07-10T12:35:32.247Z,91.60
2018-07-10T12:38:00.478Z,91.60
2018-07-10T12:40:28.576Z,91.50
2018-07-10T12:42:56.715Z,91.70
2018-07-10T12:45:24.799Z,92.20
2018-07-10T12:47:52.894Z,92.80
2018-07-10T12:50:21.008Z,93.30
2018-07-10T12:52:49.672Z,93.50
2018-07-10T12:55:19.298Z,93.70
2018-07-10T12:57:48.146Z,93.80
2018-07-10T13:00:16.240Z,94.20
2018-07-10T13:02:47.462Z,94.90
2018-07-10T13:05:16.058Z,94.50
2018-07-10T13:07:44.234Z,94.70
2018-07-10T13:10:12.377Z,94.20
2018-07-10T13:12:40.462Z,94.00
2018-07-10T13:15:09.130Z,93.70
2018-07-10T13:17:42.190Z,93.90
2018-07-10T13:20:10.296Z,93.40
2018-07-10T13:22:38.378Z,93.40
2018-07-10T13:25:06.470Z,92.80
2018-07-10T13:27:34.658Z,92.90
2018-07-10T13:30:03.130Z,93.10
2018-07-10T13:32:31.522Z,93.00
2018-07-10T13:34:59.579Z,93.00
2018-07-10T13:37:28.767Z,93.10
2018-07-10T13:40:00.864Z,92.70
2018-07-10T13:45:01.556Z,92.20
2018-07-10T13:47:29.629Z,92.10
2018-07-10T13:49:57.735Z,92.00
2018-07-10T13:52:25.809Z,91.30
2018-07-10T13:54:53.919Z,89.90
2018-07-10T13:57:22.031Z,90.00
2018-07-10T13:59:50.175Z,86.40
2018-07-10T14:02:18.263Z,86.50
2018-07-10T14:04:46.656Z,85.40
2018-07-10T14:07:14.743Z,84.60
2018-07-10T14:09:42.806Z,84.00
2018-07-10T14:12:10.921Z,82.60
2018-07-10T14:14:39.062Z,82.10
2018-07-10T14:17:07.245Z,81.40
2018-07-10T14:19:35.498Z,81.10
2018-07-10T14:22:03.579Z,79.70
2018-07-10T14:24:31.646Z,78.30
2018-07-10T14:26:59.775Z,77.10
2018-07-10T14:29:27.869Z,76.00
2018-07-10T14:31:55.974Z,73.00
2018-07-10T14:34:24.046Z,69.70
2018-07-10T14:36:52.262Z,69.00
2018-07-10T14:41:49.203Z,67.60
2018-07-10T14:44:17.649Z,66.40
2018-07-10T14:46:45.729Z,64.40
2018-07-10T14:49:13.806Z,62.50
2018-07-10T14:51:45.602Z,63.20
2018-07-10T14:54:14.166Z,61.10
2018-07-10T14:56:42.874Z,63.10
2018-07-10T14:59:11.362Z,61.20
2018-07-10T15:01:40.341Z,60.30
2018-07-10T15:04:08.719Z,60.40
2018-07-10T15:06:36.913Z,59.70
2018-07-10T15:09:06.595Z,58.80
2018-07-10T15:11:34.835Z,58.80
2018-07-10T15:14:05.854Z,59.40
2018-07-10T15:17:38.154Z,57.40
2018-07-10T15:20:06.896Z,57.20
2018-07-10T15:22:37.210Z,56.10
2018-07-10T15:25:05.592Z,55.10
2018-07-10T15:27:33.910Z,54.80
2018-07-10T15:30:02.041Z,54.20
2018-07-10T15:32:30.070Z,53.50
2018-07-10T15:34:58.394Z,52.50
2018-07-10T15:37:26.538Z,52.10
2018-07-10T15:39:54.875Z,52.00
2018-07-10T15:42:23.215Z,52.60
2018-07-10T15:44:51.279Z,51.20
2018-07-10T15:47:19.567Z,51.00
2018-07-10T15:49:47.684Z,50.00
2018-07-10T15:52:15.734Z,49.00
2018-07-10T15:54:43.830Z,48.50
2018-07-10T15:57:11.890Z,47.90
2018-07-10T15:59:40.007Z,48.10
2018-07-10T16:02:08.702Z,46.60
2018-07-10T16:04:36.866Z,47.60
2018-07-10T16:07:04.941Z,48.90
2018-07-10T16:09:33.010Z,48.60
2018-07-10T16:12:03.356Z,47.20
2018-07-10T16:14:31.795Z,46.60
2018-07-10T16:17:00.504Z,46.50
2018-07-10T16:19:34.761Z,45.70
2018-07-10T16:22:06.538Z,43.80
2018-07-10T16:27:06.003Z,44.20
2018-07-10T16:29:34.235Z,45.80
2018-07-10T16:34:32.111Z,46.70
2018-07-10T16:37:00.203Z,46.30
2018-07-10T16:39:28.306Z,46.20
2018-07-10T16:42:01.849Z,44.80
2018-07-10T16:44:30.297Z,43.80
2018-07-10T16:47:07.275Z,43.50
2018-07-10T16:49:41.363Z,42.20
2018-07-10T16:52:17.128Z,41.20
2018-07-10T16:54:45.720Z,40.30
2018-07-10T16:57:13.927Z,39.00
2018-07-10T16:59:42.047Z,38.60
2018-07-10T17:02:10.116Z,38.90
2018-07-10T17:04:38.204Z,38.10
2018-07-10T17:07:06.595Z,38.10
2018-07-10T17:09:34.890Z,39.60
2018-07-10T17:12:03.712Z,42.30
2018-07-10T17:14:31.999Z,44.30
2018-07-10T17:17:00.076Z,45.70
2018-07-10T17:19:28.266Z,46.50
2018-07-10T17:21:56.758Z,47.60
2018-07-10T17:24:24.901Z,48.50
2018-07-10T17:26:52.968Z,49.10
2018-07-10T17:29:21.030Z,49.90
2018-07-10T17:31:49.570Z,50.30
2018-07-10T17:34:17.729Z,50.30
2018-07-10T17:36:46.100Z,50.70
2018-07-10T17:39:14.161Z,51.40
2018-07-10T17:41:42.553Z,51.70
2018-07-10T17:44:11.657Z,52.20
2018-07-10T17:46:40.037Z,52.60
2018-07-10T17:49:08.129Z,52.70
2018-07-10T17:51:36.358Z,52.60
2018-07-10T17:54:04.667Z,53.70
2018-07-10T17:56:32.831Z,53.60
2018-07-10T17:59:01.428Z,54.20
2018-07-10T18:01:29.482Z,54.30
2018-07-10T18:03:57.776Z,54.50
2018-07-10T18:06:25.898Z,54.40
2018-07-10T18:08:53.975Z,54.70
2018-07-10T18:11:22.206Z,55.30
2018-07-10T18:13:50.329Z,54.30
2018-07-10T18:16:18.434Z,54.40
2018-07-10T18:18:46.541Z,54.70
2018-07-10T18:21:14.886Z,55.20
2018-07-10T18:23:42.947Z,55.20
2018-07-10T18:26:11.043Z,55.20
2018-07-10T18:28:39.140Z,55.10
2018-07-10T18:33:35.089Z,55.30
2018-07-10T18:36:03.344Z,55.50
2018-07-10T18:40:59.322Z,55.90
2018-07-10T18:43:27.496Z,56.20
2018-07-10T18:45:55.671Z,56.40
2018-07-10T18:48:26.193Z,56.80
2018-07-10T18:50:54.646Z,56.80
2018-07-10T18:53:22.703Z,56.80
2018-07-10T18:55:51.195Z,57.00
2018-07-10T19:00:59.015Z,57.30
2018-07-10T19:03:28.784Z,57.50
2018-07-10T19:06:00.026Z,57.80
2018-07-10T19:08:28.273Z,58.00
2018-07-10T19:10:56.331Z,58.30
2018-07-10T19:13:24.573Z,58.50
2018-07-10T19:15:53.355Z,58.70
2018-07-10T19:18:21.418Z,58.90
2018-07-10T19:21:00.591Z,59.10
2018-07-10T19:23:40.062Z,59.20
2018-07-10T19:26:08.142Z,59.50
2018-07-10T19:28:36.205Z,59.70
2018-07-10T19:31:12.771Z,59.90
2018-07-10T19:33:41.294Z,60.00
2018-07-10T19:36:09.872Z,60.40
2018-07-10T19:38:38.167Z,60.40
2018-07-10T19:41:06.231Z,60.50
2018-07-10T19:43:34.351Z,60.60
2018-07-10T19:46:02.426Z,60.90
2018-07-10T19:48:31.819Z,61.10
2018-07-10T19:50:59.887Z,61.30
2018-07-10T19:53:28.410Z,61.50
2018-07-10T19:55:56.511Z,61.80
2018-07-10T19:58:29.640Z,62.10
2018-07-10T20:01:07.035Z,62.20
2018-07-10T20:03:40.383Z,62.40
2018-07-10T20:06:14.527Z,62.50
2018-07-10T20:08:45.546Z,62.80
2018-07-10T20:11:18.291Z,63.40
2018-07-10T20:13:48.111Z,63.40
2018-07-10T20:16:23.260Z,63.40
2018-07-10T20:18:56.142Z,63.60
2018-07-10T20:21:32.689Z,64.40
2018-07-10T20:24:08.870Z,64.50
2018-07-10T20:26:43.559Z,65.00
2018-07-10T20:29:18.374Z,65.10
2018-07-10T20:35:27.127Z,65.10
2018-07-10T20:37:55.239Z,65.30
2018-07-10T20:40:28.722Z,65.40
2018-07-10T20:42:56.798Z,65.60
2018-07-10T20:45:26.227Z,65.80
2018-07-10T20:47:57.342Z,65.90
2018-07-10T20:50:35.574Z,66.10
2018-07-10T20:53:15.793Z,66.10
2018-07-10T20:55:49.479Z,66.20
2018-07-10T20:58:18.126Z,66.30
2018-07-10T21:01:08.019Z,66.40
2018-07-10T21:03:44.194Z,66.50
2018-07-10T21:06:28.816Z,66.70
2018-07-10T21:09:08.878Z,66.80
2018-07-10T21:11:47.583Z,68.00
2018-07-10T21:14:24.117Z,67.40
2018-07-10T21:17:58.751Z,67.60
2018-07-10T21:20:36.011Z,67.70
2018-07-10T21:23:12.847Z,67.90
2018-07-10T21:25:46.958Z,68.10
2018-07-10T21:28:26.634Z,68.10
2018-07-10T21:30:58.110Z,68.20
2018-07-10T21:33:36.182Z,68.40
2018-07-10T21:36:11.506Z,68.50
2018-07-10T21:38:46.075Z,68.50
2018-07-10T21:42:28.378Z,68.70
2018-07-10T21:45:10.343Z,69.00
2018-07-10T21:47:49.509Z,69.20
2018-07-10T21:50:23.587Z,69.50
2018-07-10T21:52:51.670Z,69.80
2018-07-10T21:55:19.738Z,70.20
2018-07-10T21:57:47.818Z,70.50
2018-07-10T22:00:16.642Z,70.80
2018-07-10T22:02:45.604Z,71.60
2018-07-10T22:05:13.679Z,71.80
2018-07-10T22:07:41.953Z,72.80
2018-07-10T22:10:10.350Z,72.80
2018-07-10T22:12:43.707Z,72.90
2018-07-10T22:15:12.142Z,73.00
2018-07-10T22:17:40.204Z,73.00
2018-07-10T22:20:08.591Z,73.20
2018-07-10T22:22:36.707Z,73.30
2018-07-10T22:30:07.017Z,73.90
2018-07-10T22:32:44.607Z,74.00
2018-07-10T22:35:13.726Z,74.40
2018-07-10T22:37:41.831Z,74.60
2018-07-10T22:40:10.126Z,74.70
2018-07-10T22:42:38.480Z,74.90
2018-07-10T22:45:06.810Z,75.10
2018-07-10T22:47:37.570Z,76.00
2018-07-10T22:50:08.796Z,75.50
2018-07-10T22:52:57.303Z,75.70
2018-07-10T22:55:28.015Z,75.90
2018-07-10T22:57:59.097Z,75.90
2018-07-10T23:00:29.255Z,77.70
2018-07-10T23:02:57.436Z,77.20
2018-07-10T23:05:25.632Z,77.10
2018-07-10T23:07:53.700Z,77.00
2018-07-10T23:10:21.802Z,77.10
2018-07-10T23:12:50.410Z,77.20
2018-07-10T23:15:18.490Z,77.30
2018-07-10T23:17:46.652Z,77.40
2018-07-10T23:20:14.799Z,77.50
2018-07-10T23:22:53.634Z,77.60
2018-07-10T23:25:23.278Z,77.70
2018-07-10T23:27:52.734Z,78.00
2018-07-10T23:30:20.803Z,78.20
2018-07-10T23:32:48.871Z,78.40
2018-07-10T23:35:16.962Z,78.50
2018-07-10T23:37:54.288Z,78.90
2018-07-10T23:40:22.380Z,79.00
2018-07-10T23:42:50.743Z,79.10
2018-07-10T23:45:22.898Z,79.30
2018-07-10T23:47:51.546Z,79.50
2018-07-10T23:50:23.893Z,79.60
2018-07-10T23:54:00.199Z,80.80
2018-07-10T23:56:28.409Z,80.10
2018-07-10T23:58:56.542Z,80.10
